Time;durP1;ratioP1;P1;durP2;ratioP2;P2;SDS_P1;SDS_P2;PMS_P1;PMS_P2;Temp;Humidity;BMP_temperature;BMP_pressure;BME280_temperature;BME280_humidity;BME280_pressure;Samples;Min_cycle;Max_cycle;Signal;HPM_P1;HPM_P2
2022/09/18 00:01:41;;;;;;;16.85;4.65;;;15.50;99.90;;;15.66;82.72;101528.16;5112899;28;20054;-81
2022/09/18 00:04:13;;;;;;;20.10;4.82;;;15.30;99.90;;;15.54;82.52;101525.69;5112960;28;20400;-80
2022/09/18 00:06:44;;;;;;;12.98;4.10;;;15.30;99.90;;;15.47;82.24;101505.31;5113291;28;20044;-80
2022/09/18 00:09:15;;;;;;;16.15;4.50;;;15.20;99.90;;;15.68;82.05;101529.88;5112668;28;20043;-80
2022/09/18 00:11:46;;;;;;;13.40;3.90;;;15.30;99.90;;;15.66;81.18;101528.16;5111525;28;20043;-81
2022/09/18 00:14:18;;;;;;;12.13;3.90;;;15.40;99.90;;;15.80;80.10;101523.47;5112409;28;20583;-82
2022/09/18 00:16:46;;;;;;;15.07;4.63;;;15.50;99.90;;;15.65;78.74;101518.38;5112440;28;20054;-82
2022/09/18 00:19:16;;;;;;;13.68;4.03;;;15.50;99.90;;;15.76;78.52;101522.66;5112471;28;20039;-82
2022/09/18 00:21:48;;;;;;;9.35;3.63;;;15.40;99.90;;;15.77;77.89;101528.88;5113025;28;20048;-83
2022/09/18 00:24:19;;;;;;;10.73;4.18;;;15.40;99.90;;;15.60;78.91;101526.44;5112863;28;20058;-83
2022/09/18 00:26:48;;;;;;;15.68;4.55;;;15.30;99.90;;;15.49;78.24;101528.38;5116190;28;20039;-83
2022/09/18 00:29:17;;;;;;;12.88;4.05;;;15.30;99.90;;;15.70;77.67;101519.22;5115218;28;20405;-83
2022/09/18 00:31:46;;;;;;;13.88;4.07;;;15.40;99.90;;;15.59;78.15;101524.69;5115379;28;20046;-83
2022/09/18 00:34:16;;;;;;;14.85;4.30;;;15.40;99.90;;;15.48;79.01;101520.41;5120380;28;20044;-82
2022/09/18 00:36:44;;;;;;;12.05;4.10;;;15.20;99.90;;;15.39;79.09;101527.59;5137854;28;20055;-83
2022/09/18 00:39:13;;;;;;;13.05;4.07;;;15.10;99.90;;;15.65;77.96;101523.72;5141260;28;20031;-80
2022/09/18 00:41:44;;;;;;;10.63;3.65;;;15.30;99.90;;;15.63;77.62;101538.88;5127252;28;20516;-83
2022/09/18 00:44:41;;;;;;;12.10;4.18;;;15.30;99.90;;;15.32;77.38;101536.59;5116717;28;20043;-84
2022/09/18 00:47:26;;;;;;;13.43;4.03;;;15.20;99.90;;;15.18;77.98;101529.66;5116742;28;20045;-84
2022/09/18 00:50:04;;;;;;;10.10;3.88;;;14.90;99.90;;;15.00;76.84;101525.44;5116044;28;20507;-84
2022/09/18 00:52:46;;;;;;;9.05;3.17;;;14.80;99.90;;;14.86;76.44;101521.19;5075248;28;20041;-84
2022/09/18 00:55:16;;;;;;;7.60;3.13;;;14.70;99.90;;;15.07;75.80;101532.47;5075923;28;20517;-84
2022/09/18 00:57:52;;;;;;;5.65;2.92;;;14.80;99.90;;;15.13;76.02;101521.75;5075598;28;20135;-85
2022/09/18 01:00:22;;;;;;;8.60;3.15;;;14.90;99.90;;;15.23;76.16;101531.38;5075719;28;20503;-84
2022/09/18 01:02:51;;;;;;;9.23;3.58;;;14.90;99.90;;;15.14;77.05;101531.50;5075700;28;20123;-85
2022/09/18 01:05:30;;;;;;;7.53;3.25;;;15.00;99.90;;;15.24;77.03;101534.91;5075197;28;20053;-84
2022/09/18 01:08:22;;;;;;;12.82;3.63;;;15.00;99.90;;;15.26;78.07;101533.13;5090882;28;20052;-84
2022/09/18 01:11:11;;;;;;;12.38;4.45;;;14.90;99.90;;;15.20;78.24;101544.75;5075156;28;20098;-84
2022/09/18 01:13:54;;;;;;;9.10;3.65;;;14.90;99.90;;;15.05;79.09;101536.06;5090683;28;20052;-85
2022/09/18 01:16:28;;;;;;;11.50;3.75;;;14.80;99.90;;;14.73;81.56;101531.06;5090626;28;20056;-83
2022/09/18 01:19:10;;;;;;;17.15;4.07;;;14.50;99.90;;;14.77;82.26;101511.50;5075061;28;20055;-84
2022/09/18 01:21:47;;;;;;;11.50;3.65;;;14.50;99.90;;;14.87;82.89;101509.63;5075020;28;20041;-84
2022/09/18 01:24:45;;;;;;;6.88;3.53;;;14.60;99.90;;;14.79;84.01;101504.38;5074980;28;20045;-84
2022/09/18 01:27:24;;;;;;;11.98;3.70;;;14.40;99.90;;;14.74;83.68;101500.91;5073643;28;20054;-86
2022/09/18 01:30:01;;;;;;;11.43;3.53;;;14.50;99.90;;;14.81;84.13;101491.03;5073598;28;20048;-85
2022/09/18 01:32:37;;;;;;;12.75;3.80;;;14.50;99.90;;;14.86;84.35;101505.22;5073117;28;20053;-85
2022/09/18 01:35:12;;;;;;;15.95;3.78;;;14.50;99.90;;;14.89;83.70;101506.03;5090177;28;20102;-85
2022/09/18 01:38:06;;;;;;;12.10;3.55;;;14.60;99.90;;;14.79;83.76;101504.38;5090152;28;20067;-85
2022/09/18 01:40:40;;;;;;;13.18;3.65;;;14.50;99.90;;;14.97;81.32;101501.50;5073237;28;20135;-84
2022/09/18 01:43:14;;;;;;;7.00;3.30;;;14.60;99.90;;;14.79;77.72;101499.06;5090020;28;20067;-85
2022/09/18 01:45:48;;;;;;;12.48;3.30;;;14.60;99.90;;;14.96;76.90;101494.41;5073103;28;20490;-85
2022/09/18 01:48:26;;;;;;;5.63;2.92;;;14.60;99.90;;;15.02;73.90;101498.81;5072202;28;20055;-85
2022/09/18 01:51:03;;;;;;;8.18;3.45;;;14.70;99.90;;;14.94;74.07;101493.53;5105395;27;20059;-85
2022/09/18 01:53:37;;;;;;;8.98;3.67;;;14.70;99.90;;;15.09;73.74;101497.81;5113482;28;20075;-86
2022/09/18 01:56:12;;;;;;;12.77;3.35;;;14.80;99.90;;;14.96;74.04;101486.41;5113238;28;20039;-81
2022/09/18 01:58:40;;;;;;;9.10;3.50;;;14.70;99.90;;;15.11;73.46;101486.25;5113123;28;20051;-85
2022/09/18 02:01:15;;;;;;;23.27;4.53;;;14.80;99.90;;;15.09;74.06;101487.16;5113260;28;20044;-84
2022/09/18 02:03:49;;;;;;;10.18;3.65;;;14.80;99.90;;;14.89;73.98;101476.75;5130448;27;20098;-85
2022/09/18 02:06:25;;;;;;;11.95;3.50;;;14.70;99.90;;;14.89;73.63;101466.09;5112922;28;20164;-85
2022/09/18 02:08:57;;;;;;;8.93;3.88;;;14.60;99.90;;;15.30;72.99;101474.44;5113093;28;20443;-85
2022/09/18 02:11:25;;;;;;;9.38;3.47;;;14.90;99.90;;;15.44;72.92;101482.25;5114445;28;20123;-85
2022/09/18 02:14:01;;;;;;;11.68;3.80;;;15.10;99.90;;;15.24;73.58;101486.94;5112995;28;20062;-84
2022/09/18 02:16:55;;;;;;;7.15;3.35;;;15.00;99.90;;;15.47;73.41;101481.31;5112993;28;20397;-84
2022/09/18 02:19:29;;;;;;;11.77;3.70;;;15.10;99.90;;;15.27;73.39;101481.59;5113050;28;20044;-84
2022/09/18 02:21:59;;;;;;;11.23;3.60;;;15.10;99.90;;;15.44;73.33;101482.25;5113191;28;20043;-84
2022/09/18 02:24:33;;;;;;;12.45;3.63;;;15.10;99.90;;;15.49;72.38;101475.06;5113950;28;20052;-84
2022/09/18 02:27:05;;;;;;;10.18;3.88;;;15.20;99.90;;;15.28;73.27;101476.22;5112681;28;20052;-85
2022/09/18 02:29:34;;;;;;;13.95;4.78;;;15.00;99.90;;;15.36;72.72;101455.69;5112925;28;20096;-84
2022/09/18 02:32:05;;;;;;;5.80;3.38;;;15.20;99.90;;;15.30;71.14;101482.41;5114041;28;20043;-84
2022/09/18 02:34:34;;;;;;;6.97;3.40;;;15.10;99.90;;;15.33;70.64;101481.47;5113939;28;20392;-85
2022/09/18 02:37:17;;;;;;;10.38;3.30;;;15.00;99.90;;;15.32;69.21;101477.06;5114248;28;20039;-85
2022/09/18 02:40:02;;;;;;;6.97;3.08;;;15.00;99.90;;;15.55;68.30;101472.31;5113782;28;20074;-84
2022/09/18 02:42:42;;;;;;;8.60;3.50;;;15.20;99.90;;;15.58;68.86;101468.72;5112734;28;20147;-84
2022/09/18 02:45:25;;;;;;;6.35;2.90;;;15.20;99.90;;;15.48;68.09;101475.09;5112680;28;20142;-83
2022/09/18 02:48:16;;;;;;;8.05;3.45;;;15.10;99.90;;;15.34;67.92;101467.25;5112454;28;20052;-85
2022/09/18 02:50:55;;;;;;;6.43;2.78;;;15.10;99.90;;;15.44;68.32;101468.94;5112330;28;20047;-84
2022/09/18 02:53:30;;;;;;;8.43;3.30;;;15.20;99.90;;;15.35;68.89;101482.34;5112455;28;20055;-84
2022/09/18 02:56:05;;;;;;;9.38;3.50;;;15.20;99.90;;;15.53;68.58;101467.88;5112485;28;20101;-85
2022/09/18 02:58:44;;;;;;;8.13;3.10;;;15.30;99.90;;;15.50;68.57;101462.63;5112297;28;20138;-85
2022/09/18 03:01:13;;;;;;;11.85;3.17;;;15.20;99.90;;;15.50;68.89;101457.28;5112198;28;20114;-85
2022/09/18 03:03:43;;;;;;;8.38;3.03;;;15.30;99.90;;;15.62;69.20;101459.78;5112195;28;20146;-83
2022/09/18 03:06:13;;;;;;;8.55;3.10;;;15.30;99.90;;;15.60;68.94;101454.44;5112336;28;20146;-84
2022/09/18 03:08:42;;;;;;;7.97;3.55;;;15.30;99.90;;;15.79;67.71;101447.94;5112092;28;20606;-84
2022/09/18 03:11:10;;;;;;;10.75;3.75;;;15.50;99.90;;;15.65;67.97;101446.38;5112157;28;20051;-84
2022/09/18 03:13:39;;;;;;;11.90;3.90;;;15.40;99.90;;;15.73;67.77;101449.81;5112389;28;20051;-84
2022/09/18 03:16:08;;;;;;;7.72;3.90;;;15.40;99.90;;;15.78;67.77;101446.16;5112333;28;20097;-83
2022/09/18 03:18:37;;;;;;;9.90;3.33;;;15.50;99.90;;;15.55;70.34;101442.09;5112160;28;20055;-84
2022/09/18 03:21:06;;;;;;;10.20;3.50;;;15.30;99.90;;;15.67;71.73;101460.56;5112273;28;20396;-84
2022/09/18 03:23:35;;;;;;;10.50;4.13;;;15.40;99.90;;;15.62;73.85;101452.63;5112086;28;20047;-83
2022/09/18 03:26:14;;;;;;;9.40;3.97;;;15.30;99.90;;;15.32;75.06;101456.63;5111829;28;20040;-84
2022/09/18 03:28:43;;;;;;;8.93;4.20;;;15.10;99.90;;;15.43;74.66;101460.97;5112030;28;20054;-84
2022/09/18 03:31:13;;;;;;;9.70;3.63;;;15.10;99.90;;;15.47;75.57;101465.31;5112046;28;20055;-84
2022/09/18 03:33:42;;;;;;;13.35;4.18;;;15.10;99.90;;;15.34;76.58;101457.50;5111937;28;20477;-84
2022/09/18 03:36:13;;;;;;;9.37;3.80;;;15.00;99.90;;;14.90;75.41;101340.00;5111903;28;20044;-84
2022/09/18 03:38:42;;;;;;;10.95;4.00;;;15.10;99.90;;;15.43;75.44;101444.97;5112024;28;20383;-84
2022/09/18 03:41:10;;;;;;;9.07;4.20;;;15.10;99.90;;;15.63;74.28;101440.19;5111989;28;20400;-83
2022/09/18 03:43:40;;;;;;;8.77;3.67;;;15.30;99.90;;;15.77;73.85;101436.41;5113389;28;20447;-83
2022/09/18 03:46:11;;;;;;;11.27;3.80;;;15.50;99.90;;;15.75;73.56;101437.31;5113449;28;20079;-83
2022/09/18 03:48:39;;;;;;;10.20;3.63;;;15.50;99.90;;;15.92;73.62;101444.16;5112227;28;20079;-84
2022/09/18 03:51:07;;;;;;;10.85;3.70;;;15.60;99.90;;;16.09;73.06;101438.50;5112124;28;20055;-83
2022/09/18 03:53:37;;;;;;;15.88;4.72;;;15.70;99.90;;;16.22;72.57;101442.69;5113758;28;20048;-80
2022/09/18 03:56:18;;;;;;;11.52;4.05;;;15.90;99.90;;;15.98;73.43;101440.50;5112698;28;20068;-83
2022/09/18 03:59:02;;;;;;;14.52;3.72;;;15.70;99.90;;;16.03;73.88;101435.94;5113259;28;20052;-83
2022/09/18 04:01:53;;;;;;;9.90;3.72;;;15.70;99.90;;;15.97;74.50;101441.38;5112872;28;20548;-84
2022/09/18 04:04:28;;;;;;;10.18;3.67;;;15.60;99.90;;;15.81;74.30;101447.91;5113455;28;20496;-84
2022/09/18 04:07:19;;;;;;;10.82;4.05;;;15.50;99.90;;;16.09;73.36;101446.50;5092750;28;20443;-84
2022/09/18 04:10:09;;;;;;;11.55;4.13;;;15.70;99.90;;;16.22;73.05;101461.38;5111815;28;20108;-84
2022/09/18 04:12:38;;;;;;;14.50;3.97;;;15.90;99.90;;;15.96;74.17;101453.88;5115156;28;20062;-85
2022/09/18 04:15:18;;;;;;;11.38;3.72;;;15.80;99.90;;;16.00;75.15;101463.59;5115542;28;20097;-84
2022/09/18 04:17:47;;;;;;;10.15;3.63;;;15.70;99.90;;;16.01;75.27;101462.66;5115549;28;20071;-84
2022/09/18 04:20:16;;;;;;;11.10;3.55;;;15.80;99.90;;;16.00;75.46;101454.69;5115318;28;20043;-84
2022/09/18 04:22:44;;;;;;;6.90;3.22;;;15.70;99.90;;;15.92;75.63;101451.25;5115306;28;20048;-84
2022/09/18 04:25:14;;;;;;;10.35;3.65;;;15.70;99.90;;;15.32;75.80;101342.00;5115231;28;20051;-84
2022/09/18 04:27:45;;;;;;;7.15;3.20;;;15.70;99.90;;;16.05;76.16;101453.69;5115162;28;20065;-84
2022/09/18 04:30:14;;;;;;;8.23;3.17;;;15.80;99.90;;;16.02;76.25;101452.88;5115183;28;20108;-83
2022/09/18 04:32:45;;;;;;;13.43;3.53;;;15.80;99.90;;;15.97;76.72;101452.03;5115044;28;20044;-84
2022/09/18 04:35:13;;;;;;;11.10;4.35;;;15.70;99.90;;;15.99;77.03;101451.13;5116315;28;20058;-85
2022/09/18 04:37:44;;;;;;;8.73;3.58;;;15.70;99.90;;;15.81;77.57;101453.25;5115041;28;20047;-85
2022/09/18 04:40:14;;;;;;;12.45;4.22;;;15.50;99.90;;;15.82;77.76;101452.31;5114590;28;20051;-84
2022/09/18 04:42:43;;;;;;;13.48;4.15;;;15.50;99.90;;;15.66;78.62;101453.50;5115052;28;20116;-84
2022/09/18 04:45:11;;;;;;;11.63;4.60;;;15.40;99.90;;;15.68;78.34;101446.34;5116192;28;20039;-84
2022/09/18 04:47:40;;;;;;;10.40;3.67;;;15.40;99.90;;;15.70;78.90;101455.22;5115089;28;20349;-81
2022/09/18 04:50:09;;;;;;;10.45;3.95;;;15.30;99.90;;;15.77;78.38;101436.41;5114269;28;20079;-84
2022/09/18 04:52:58;;;;;;;13.75;3.90;;;15.50;99.90;;;15.84;77.78;101442.50;5115634;28;20055;-84
2022/09/18 04:55:28;;;;;;;9.48;3.75;;;15.60;99.90;;;15.67;77.92;101441.91;5114830;28;20044;-83
2022/09/18 04:57:57;;;;;;;11.50;3.75;;;15.40;99.90;;;15.84;77.63;101426.50;5114858;28;20496;-84
2022/09/18 05:00:25;;;;;;;15.85;4.65;;;15.50;99.90;;;15.84;77.30;101438.06;5114550;28;20040;-84
2022/09/18 05:02:54;;;;;;;8.80;3.80;;;15.50;99.90;;;15.66;77.86;101427.69;5114418;28;20051;-84
2022/09/18 05:05:27;;;;;;;10.07;3.40;;;15.40;99.90;;;15.93;77.56;101437.88;5114463;28;20044;-83
2022/09/18 05:07:59;;;;;;;10.52;3.95;;;15.50;99.90;;;15.97;76.88;101428.03;5114297;28;20141;-83
2022/09/18 05:10:28;;;;;;;13.02;4.68;;;15.70;99.90;;;15.92;76.44;101436.13;5115742;28;20456;-83
2022/09/18 05:12:57;;;;;;;11.07;3.55;;;15.60;99.90;;;16.06;76.27;101438.56;5114269;28;20511;-82
2022/09/18 05:15:27;;;;;;;9.32;3.60;;;15.70;99.90;;;15.97;74.68;101434.25;5114266;28;20311;-81
2022/09/18 05:18:00;;;;;;;11.18;3.95;;;15.70;99.90;;;15.28;75.46;101433.59;5113893;28;20082;-85
2022/09/18 05:20:30;;;;;;;6.97;2.95;;;15.20;99.90;;;14.89;75.84;101452.78;5114345;28;20048;-86
2022/09/18 05:23:05;;;;;;;7.13;3.33;;;14.70;99.90;;;14.65;76.61;101438.88;5112949;28;20067;-86
2022/09/18 05:25:35;;;;;;;8.60;3.45;;;14.50;99.90;;;14.72;79.18;101437.91;5115334;28;20051;-85
2022/09/18 05:28:04;;;;;;;;;;;14.40;99.90;;;14.76;80.72;101432.53;5114279;28;20043;-84
2022/09/18 05:30:39;;;;;;;11.07;3.78;;;14.40;99.90;;;14.63;81.74;101444.22;5114083;28;20258;-84
2022/09/18 05:33:09;;;;;;;9.85;3.33;;;14.30;99.90;;;14.63;80.96;101444.22;5115248;28;20046;-85
2022/09/18 05:35:41;;;;;;;16.40;4.30;;;14.30;99.90;;;14.74;80.98;101437.00;5113935;28;20043;-85
2022/09/18 05:38:11;;;;;;;13.35;4.25;;;14.40;99.90;;;14.74;81.96;101421.00;5115138;28;20066;-83
2022/09/18 05:40:44;;;;;;;13.88;3.55;;;14.40;99.90;;;14.78;81.45;101428.06;5113895;28;20047;-84
2022/09/18 05:43:13;;;;;;;10.87;3.00;;;14.50;99.90;;;14.75;80.93;101430.75;5115406;28;20126;-84
2022/09/18 05:45:41;;;;;;;7.82;3.35;;;14.50;99.90;;;14.92;79.79;101426.09;5113905;28;20293;-84
2022/09/18 05:48:25;;;;;;;11.02;3.83;;;14.60;99.90;;;14.98;79.14;101426.00;5113936;28;20142;-83
2022/09/18 05:50:53;;;;;;;10.27;3.20;;;14.60;99.90;;;15.01;78.80;101420.66;5113497;28;20142;-84
2022/09/18 05:53:22;;;;;;;13.45;3.95;;;14.70;99.90;;;15.00;77.40;101410.00;5114902;28;20139;-84
2022/09/18 05:56:18;;;;;;;8.32;3.08;;;14.70;99.90;;;15.14;76.28;101416.00;5111930;28;20052;-83
2022/09/18 05:58:46;;;;;;;7.55;3.10;;;14.80;99.90;;;15.08;76.05;101400.09;5113816;28;20492;-84
2022/09/18 06:01:15;;;;;;;9.35;3.92;;;14.90;99.90;;;15.12;75.00;101404.50;5113432;28;20060;-85
2022/09/18 06:04:12;;;;;;;9.63;3.35;;;14.80;99.90;;;15.24;74.39;101402.53;5113774;28;20044;-83
2022/09/18 06:06:46;;;;;;;8.65;3.78;;;15.00;99.90;;;15.29;74.66;101389.16;5113332;28;20409;-84
2022/09/18 06:09:15;;;;;;;9.68;3.25;;;15.00;99.90;;;15.32;74.65;101402.41;5112813;28;20051;-86
2022/09/18 06:11:45;;;;;;;14.77;3.88;;;15.00;99.90;;;15.35;74.14;101405.03;5114443;28;20370;-85
2022/09/18 06:14:13;;;;;;;7.68;3.90;;;15.00;99.90;;;15.51;74.28;101411.94;5113137;28;20057;-85
2022/09/18 06:16:42;;;;;;;11.23;3.88;;;15.20;99.90;;;15.62;74.12;101414.44;5114333;27;20043;-85
2022/09/18 06:19:12;;;;;;;7.30;3.60;;;15.30;99.90;;;15.66;73.27;101410.81;5113025;28;20050;-82
2022/09/18 06:21:44;;;;;;;9.18;4.25;;;15.30;99.90;;;15.74;72.50;101416.88;5113094;28;20058;-86
2022/09/18 06:24:16;;;;;;;10.80;4.20;;;15.40;99.90;;;15.68;71.37;101411.69;5113004;28;20511;-87
2022/09/18 06:26:52;;;;;;;8.10;3.80;;;15.40;99.90;;;15.38;70.89;101365.91;5112745;28;20493;-86
2022/09/18 06:29:22;;;;;;;10.18;3.75;;;15.40;99.90;;;15.77;70.50;101416.84;5112980;28;20043;-88
2022/09/18 06:31:57;;;;;;;7.75;3.35;;;15.40;99.90;;;15.82;69.89;101413.19;5112964;28;20048;-86
2022/09/18 06:34:27;;;;;;;9.85;3.63;;;15.50;99.90;;;15.73;69.62;101408.03;5112538;28;20043;-86
2022/09/18 06:37:02;;;;;;;8.50;3.58;;;15.50;99.90;;;15.82;69.43;101401.63;5112801;28;20043;-86
2022/09/18 06:39:56;;;;;;;6.65;3.13;;;15.50;99.90;;;15.84;68.86;101410.47;5089827;28;20055;-86
2022/09/18 06:42:38;;;;;;;6.63;3.80;;;15.50;99.90;;;15.99;68.76;101407.53;5112788;28;20044;-84
2022/09/18 06:45:28;;;;;;;14.87;4.30;;;15.60;99.90;;;15.93;68.67;101403.19;5112860;28;20075;-80
2022/09/18 06:48:00;;;;;;;11.32;3.80;;;15.60;99.90;;;15.88;68.74;101402.41;5112888;28;20575;-77
2022/09/18 06:50:29;;;;;;;6.90;3.00;;;15.60;99.90;;;16.09;68.26;101406.47;5112753;28;20105;-77
2022/09/18 06:53:02;;;;;;;7.68;3.70;;;15.70;99.90;;;15.98;67.86;101406.69;5112961;28;20147;-75
2022/09/18 06:55:40;;;;;;;15.93;4.60;;;15.70;99.90;;;15.94;72.58;101434.31;5112609;28;20044;-73
2022/09/18 06:58:10;;;;;;;11.73;4.50;;;15.60;99.90;;;16.21;74.55;101438.28;5112664;28;20047;-78
2022/09/18 07:00:38;;;;;;;12.27;3.67;;;15.90;99.90;;;16.22;76.42;101418.69;5112533;28;20089;-81
2022/09/18 07:03:08;;;;;;;11.75;4.40;;;15.90;99.90;;;16.14;77.29;101425.97;5112652;28;20046;-82
2022/09/18 07:06:11;;;;;;;17.30;4.55;;;15.90;99.90;;;15.63;79.59;101425.06;5113051;28;20047;-76
2022/09/18 07:08:44;;;;;;;13.98;4.25;;;15.50;99.90;;;15.82;79.76;101425.63;5113970;28;20546;-79
2022/09/18 07:11:35;;;;;;;12.02;3.97;;;15.50;99.90;;;15.59;80.62;101423.34;5114211;28;20070;-78
2022/09/18 07:14:07;;;;;;;16.20;4.55;;;15.30;99.90;;;15.38;81.94;101434.31;5121696;28;20112;-76
2022/09/18 07:16:36;;;;;;;10.52;4.00;;;15.10;99.90;;;15.56;81.34;101412.75;5133601;28;20091;-73
2022/09/18 07:19:04;;;;;;;15.25;4.13;;;15.30;99.90;;;15.72;81.11;101421.34;5133080;28;20047;-73
2022/09/18 07:21:33;;;;;;;14.18;3.92;;;15.30;99.90;;;15.79;80.50;101423.03;5119806;28;20048;-74
2022/09/18 07:24:02;;;;;;;11.77;3.90;;;15.50;99.90;;;15.86;80.79;101422.91;5113976;28;20042;-73
2022/09/18 07:26:32;;;;;;;12.18;3.80;;;15.50;99.90;;;16.10;80.12;101417.13;5112343;28;20488;-75
2022/09/18 07:29:02;;;;;;;15.20;4.32;;;15.80;99.90;;;16.24;79.77;101422.19;5112137;28;20051;-80
2022/09/18 07:31:37;;;;;;;11.68;4.07;;;15.90;99.90;;;16.29;79.34;101415.00;5112328;28;20051;-74
2022/09/18 07:34:08;;;;;;;13.73;4.32;;;16.00;99.90;;;16.35;78.99;101417.56;5112015;28;20163;-78
2022/09/18 07:36:37;;;;;;;13.60;3.97;;;16.10;99.90;;;16.41;78.48;101432.56;5111822;28;20061;-78
2022/09/18 07:39:05;;;;;;;9.88;4.07;;;16.10;99.90;;;16.39;77.73;101429.94;5111967;28;20036;-77
2022/09/18 07:41:51;;;;;;;10.65;3.70;;;16.20;99.90;;;16.23;77.96;101424.00;5111967;28;20085;-78
2022/09/18 07:44:20;;;;;;;9.43;3.78;;;16.00;99.90;;;16.19;78.03;101427.66;5111932;28;20039;-71
2022/09/18 07:46:54;;;;;;;8.52;3.25;;;15.90;99.90;;;15.90;79.94;101421.06;5113975;28;20071;-74
2022/09/18 07:49:23;;;;;;;12.32;4.20;;;15.70;99.90;;;15.73;79.92;101408.03;5115885;28;20050;-73
2022/09/18 07:51:52;;;;;;;11.60;3.60;;;15.50;99.90;;;15.84;80.23;101407.81;5115208;28;20056;-72
2022/09/18 07:54:20;;;;;;;11.00;4.00;;;15.50;99.90;;;15.87;80.34;101410.44;5115713;28;20117;-73
2022/09/18 07:57:01;;;;;;;13.02;4.45;;;15.50;99.90;;;15.59;79.65;101370.03;5115735;28;20039;-73
2022/09/18 07:59:36;;;;;;;7.90;3.33;;;15.50;99.90;;;15.68;77.87;101404.53;5116120;28;20043;-75
2022/09/18 08:02:07;;;;;;;8.60;3.60;;;15.50;99.90;;;15.71;77.38;101411.59;5117588;28;20401;-73
2022/09/18 08:04:39;;;;;;;10.68;3.35;;;15.40;99.90;;;15.58;76.84;101388.72;5116119;28;20093;-72
2022/09/18 08:07:16;;;;;;;7.53;2.80;;;15.30;99.90;;;15.71;77.77;101414.28;5115607;28;20054;-74
2022/09/18 08:10:09;;;;;;;7.00;3.20;;;15.40;99.90;;;15.47;74.63;101414.66;5115688;28;20502;-73
2022/09/18 08:13:11;;;;;;;10.68;3.70;;;15.20;99.90;;;15.22;77.51;101425.66;5115691;28;20039;-78
2022/09/18 08:15:58;;;;;;;9.82;3.63;;;15.00;99.90;;;15.05;79.37;101437.47;5117190;28;20046;-74
2022/09/18 08:18:50;;;;;;;13.25;3.30;;;14.80;99.90;;;14.97;80.94;101429.56;5115942;28;20050;-74
2022/09/18 08:21:32;;;;;;;7.20;3.10;;;14.60;99.90;;;14.85;81.76;101432.41;5115304;28;20047;-74
2022/09/18 08:24:03;;;;;;;9.20;3.63;;;14.50;99.90;;;14.95;81.18;101427.81;5116674;28;20150;-74
2022/09/18 08:26:34;;;;;;;11.15;3.72;;;14.60;99.90;;;14.78;81.34;101428.06;5115028;28;20044;-74
2022/09/18 08:29:03;;;;;;;9.77;3.33;;;14.50;99.90;;;14.93;81.93;101438.50;5115075;28;20054;-75
2022/09/18 08:31:31;;;;;;;13.98;3.50;;;14.60;99.90;;;14.96;81.83;101424.28;5115041;28;20435;-78
2022/09/18 08:34:01;;;;;;;7.47;3.10;;;14.70;99.90;;;14.84;80.44;101427.09;5114959;28;20048;-80
2022/09/18 08:36:31;;;;;;;9.18;3.40;;;14.60;99.90;;;15.01;78.84;101428.63;5115036;28;20040;-80
2022/09/18 08:39:35;;;;;;;4.65;2.90;;;14.70;99.90;;;15.09;76.98;101420.53;5113651;28;20047;-81
2022/09/18 08:42:29;;;;;;;8.82;3.25;;;14.80;99.90;;;15.12;76.16;101407.16;5115922;28;20058;-83
2022/09/18 08:45:04;;;;;;;3.05;2.70;;;14.90;99.90;;;15.48;75.09;101429.75;5114778;28;20420;-82
2022/09/18 08:47:46;;;;;;;5.95;3.00;;;15.10;99.90;;;15.37;76.04;101421.88;5114830;28;20062;-81
2022/09/18 08:50:23;;;;;;;7.70;2.95;;;15.10;99.90;;;15.55;76.41;101420.75;5114658;28;20056;-80
2022/09/18 08:53:03;;;;;;;5.75;2.95;;;15.20;99.90;;;15.47;74.96;101404.00;5114408;28;20138;-86
2022/09/18 08:55:58;;;;;;;9.90;3.75;;;15.30;99.90;;;15.47;73.97;101378.22;5115250;28;20043;-91
2022/09/18 08:58:54;;;;;;;9.80;3.10;;;15.40;99.90;;;15.95;73.94;101419.22;5114499;28;20040;-83
2022/09/18 09:01:27;;;;;;;8.57;3.60;;;15.60;99.90;;;15.89;73.95;101419.31;5114713;28;20584;-87
2022/09/18 09:04:06;;;;;;;10.32;3.92;;;15.60;99.90;;;15.75;72.95;101421.31;5114565;28;20411;-82
2022/09/18 09:07:01;;;;;;;5.85;3.50;;;15.50;99.90;;;15.97;72.35;101417.34;5114500;28;20083;-76
2022/09/18 09:10:02;;;;;;;6.15;3.17;;;15.60;99.90;;;15.88;72.49;101418.41;5124553;28;20067;-85
2022/09/18 09:12:40;;;;;;;7.00;3.30;;;15.60;99.90;;;15.90;73.11;101399.72;5114428;28;20047;-84
2022/09/18 09:15:37;;;;;;;5.70;3.22;;;15.70;99.90;;;16.00;73.12;101420.00;5115585;28;20223;-84
2022/09/18 09:18:17;;;;;;;8.02;3.40;;;15.60;99.90;;;16.16;74.12;101418.81;5095795;28;20214;-77
2022/09/18 09:20:52;;;;;;;7.50;3.63;;;15.80;99.90;;;16.32;73.77;101414.94;5114283;28;20048;-81
2022/09/18 09:23:46;;;;;;;9.75;3.65;;;15.90;99.90;;;16.37;72.81;101404.16;5114221;28;20073;-75
2022/09/18 09:26:23;;;;;;;10.55;3.88;;;16.10;99.90;;;16.37;72.67;101413.06;5114180;28;20147;-79
2022/09/18 09:29:27;;;;;;;9.23;3.35;;;16.10;99.90;;;16.42;72.28;101416.53;5114234;28;20047;-75
2022/09/18 09:32:17;;;;;;;6.80;3.22;;;16.10;99.90;;;16.43;70.69;101417.41;5115472;28;20578;-77
2022/09/18 09:35:17;;;;;;;7.72;3.22;;;16.10;99.90;;;16.39;70.61;101407.69;5114302;28;20052;-93
2022/09/18 09:38:06;;;;;;;11.63;3.47;;;16.10;99.90;;;16.41;69.09;101393.41;5113879;28;20050;-83
2022/09/18 09:40:43;;;;;;;6.53;2.80;;;16.30;99.90;;;16.62;68.64;101410.81;5114207;28;20101;-74
2022/09/18 09:43:23;;;;;;;11.40;3.78;;;16.30;99.90;;;16.88;68.42;101411.13;5114329;28;20051;-74
2022/09/18 09:45:55;;;;;;;10.38;3.40;;;16.50;99.90;;;16.96;68.70;101415.41;5114213;28;20079;-71
2022/09/18 09:48:29;;;;;;;14.00;4.05;;;16.70;99.90;;;17.13;69.67;101423.94;5113723;28;20044;-79
2022/09/18 09:51:03;;;;;;;10.48;3.90;;;16.80;99.90;;;17.31;70.06;101421.75;5113692;28;20117;-84
2022/09/18 09:53:31;;;;;;;9.50;3.42;;;17.00;99.90;;;17.50;69.88;101417.78;5113851;28;20051;-88
2022/09/18 09:56:12;;;;;;;12.30;4.05;;;17.20;99.90;;;17.46;69.94;101413.41;5114062;28;20075;-79
2022/09/18 09:58:49;;;;;;;11.00;4.00;;;17.20;99.90;;;17.57;69.69;101403.34;5113610;28;20155;-77
2022/09/18 10:01:26;;;;;;;14.18;3.80;;;17.30;99.90;;;17.63;70.18;101403.19;5113659;28;20138;-84
2022/09/18 10:04:15;;;;;;;9.05;3.58;;;17.40;99.90;;;17.49;70.36;101419.56;5113044;28;20093;-80
2022/09/18 10:06:53;;;;;;;9.32;3.50;;;17.30;99.90;;;17.21;71.60;101414.88;5113358;28;20142;-86
2022/09/18 10:09:35;;;;;;;15.43;4.40;;;17.00;99.90;;;16.98;73.61;101434.09;5112610;28;20081;-88
2022/09/18 10:12:24;;;;;;;11.85;3.90;;;16.80;99.90;;;16.34;76.49;101431.81;5114517;28;20171;-86
2022/09/18 10:15:03;;;;;;;8.60;3.42;;;16.40;99.90;;;16.00;78.36;101436.91;5113334;28;20054;-76
2022/09/18 10:17:36;;;;;;;13.30;3.60;;;15.80;99.90;;;15.71;79.23;101435.63;5113127;28;20451;-70
2022/09/18 10:20:07;;;;;;;10.25;4.07;;;15.50;99.90;;;15.27;81.95;101441.59;5112627;28;20046;-83
2022/09/18 10:22:36;;;;;;;17.67;4.85;;;15.10;99.90;;;15.14;84.06;101422.22;5114655;27;20061;-93
2022/09/18 10:25:15;;;;;;;30.77;5.97;;;14.90;99.90;;;15.05;86.18;101430.38;5113349;28;20409;-83
2022/09/18 10:27:45;;;;;;;25.50;5.35;;;14.80;99.90;;;15.01;86.83;101427.75;5114731;28;20079;-73
2022/09/18 10:30:14;;;;;;;25.55;5.60;;;14.70;99.90;;;15.15;87.26;101426.69;5113342;28;20143;-76
2022/09/18 10:32:49;;;;;;;24.77;6.25;;;14.80;99.90;;;15.12;86.97;101428.47;5114056;28;20043;-81
2022/09/18 10:35:44;;;;;;;16.52;5.38;;;14.80;99.90;;;15.13;86.78;101431.13;5113617;28;20097;-84
2022/09/18 10:38:28;;;;;;;;;;;14.80;99.90;;;15.19;86.20;101423.03;5113822;28;20050;-88
2022/09/18 10:41:30;;;;;;;15.77;4.47;;;14.90;99.90;;;15.13;86.19;101435.59;5113745;28;19920;-86
2022/09/18 10:44:07;;;;;;;11.30;3.95;;;14.90;99.90;;;15.14;85.23;101437.31;5113205;28;20046;-85
2022/09/18 10:46:40;;;;;;;9.95;3.45;;;14.90;99.90;;;15.13;84.29;101419.59;5112898;28;20047;-86